Time;durP1;ratioP1;P1;durP2;ratioP2;P2;SDS_P1;SDS_P2;PMS_P1;PMS_P2;Temp;Humidity;BMP_temperature;BMP_pressure;BME280_temperature;BME280_humidity;BME280_pressure;Samples;Min_cycle;Max_cycle;Signal;HPM_P1;HPM_P2
2023/08/02 00:00:48;;;;;;;1.13;0.40;;;15.60;99.90;;;;;;5092991;28;20039;-78
2023/08/02 00:03:14;;;;;;;0.50;0.40;;;15.70;99.90;;;;;;5091651;28;20201;-78
2023/08/02 00:05:40;;;;;;;0.40;0.38;;;15.80;99.90;;;;;;5077366;28;20089;-77
2023/08/02 00:08:05;;;;;;;0.32;0.30;;;15.90;99.90;;;;;;5076114;28;20428;-78
2023/08/02 00:10:36;;;;;;;0.40;0.40;;;15.90;99.90;;;;;;5094360;28;20023;-78
2023/08/02 00:13:02;;;;;;;0.30;0.30;;;15.90;99.90;;;;;;5093704;28;20831;-78
2023/08/02 00:15:27;;;;;;;1.30;0.43;;;15.90;99.90;;;;;;5092359;28;20126;-78
2023/08/02 00:17:53;;;;;;;1.00;0.45;;;15.90;99.90;;;;;;5093721;28;20100;-78
2023/08/02 00:20:19;;;;;;;0.57;0.40;;;15.80;99.90;;;;;;5093118;28;20051;-78
2023/08/02 00:22:44;;;;;;;0.80;0.50;;;15.60;99.90;;;;;;5075216;28;20493;-78
2023/08/02 00:25:10;;;;;;;0.60;0.40;;;15.80;99.90;;;;;;5091245;28;20038;-78
2023/08/02 00:27:36;;;;;;;0.52;0.50;;;15.60;99.90;;;;;;5075227;28;20039;-78
2023/08/02 00:30:02;;;;;;;2.50;0.70;;;15.90;99.90;;;;;;5071149;28;20047;-78
2023/08/02 00:32:27;;;;;;;0.68;0.50;;;15.80;99.90;;;;;;5059073;28;20410;-78
2023/08/02 00:34:54;;;;;;;0.68;0.40;;;15.90;99.90;;;;;;5086417;28;20048;-78
2023/08/02 00:37:23;;;;;;;0.70;0.50;;;15.60;99.90;;;;;;5059280;28;20046;-78
2023/08/02 00:39:51;;;;;;;0.60;0.40;;;15.80;99.90;;;;;;5070597;28;20040;-78
2023/08/02 00:42:16;;;;;;;0.40;0.40;;;15.90;99.90;;;;;;5091579;28;20402;-78
2023/08/02 00:44:42;;;;;;;0.60;0.43;;;15.80;99.90;;;;;;5073333;28;20035;-78
2023/08/02 00:47:08;;;;;;;1.02;0.60;;;15.70;99.90;;;;;;5074882;28;20109;-78
2023/08/02 00:49:33;;;;;;;0.77;0.60;;;15.90;99.90;;;;;;5092322;28;20043;-78
2023/08/02 00:51:59;;;;;;;1.45;0.70;;;15.60;99.90;;;;;;5075711;28;20497;-78
2023/08/02 00:54:25;;;;;;;0.90;0.80;;;15.80;99.90;;;;;;5091831;28;20035;-78
2023/08/02 00:56:51;;;;;;;0.90;0.60;;;15.80;99.90;;;;;;5074486;28;20039;-78
2023/08/02 00:59:17;;;;;;;1.45;0.77;;;15.60;99.90;;;;;;5091456;28;20039;-77
2023/08/02 01:01:43;;;;;;;1.00;0.73;;;15.80;99.90;;;;;;5071166;28;20051;-77
2023/08/02 01:04:09;;;;;;;0.80;0.80;;;15.70;99.90;;;;;;5089893;28;20059;-78
2023/08/02 01:06:41;;;;;;;1.45;0.98;;;15.60;99.90;;;;;;5092907;28;20073;-78
2023/08/02 01:09:39;;;;;;;1.33;1.05;;;15.60;99.90;;;;;;5107146;28;20077;-78
2023/08/02 01:12:10;;;;;;;1.00;0.90;;;15.60;99.90;;;;;;5061267;28;20143;-78
2023/08/02 01:14:41;;;;;;;1.42;0.80;;;15.60;99.90;;;;;;5089592;28;20044;-78
2023/08/02 01:17:09;;;;;;;1.08;0.95;;;15.70;99.90;;;;;;5086665;28;20122;-78
2023/08/02 01:19:35;;;;;;;0.85;0.70;;;15.90;99.90;;;;;;5091837;28;20054;-78
2023/08/02 01:22:01;;;;;;;0.70;0.60;;;15.80;99.90;;;;;;5091620;28;20043;-78
2023/08/02 01:24:35;;;;;;;1.52;0.90;;;15.70;99.90;;;;;;5089352;28;20155;-78
2023/08/02 01:27:23;;;;;;;1.10;0.70;;;15.90;99.90;;;;;;5089848;28;20475;-78
2023/08/02 01:29:52;;;;;;;0.65;0.50;;;15.90;99.90;;;;;;5084475;28;20036;-78
2023/08/02 01:32:21;;;;;;;0.73;0.52;;;15.60;99.90;;;;;;5092209;28;20039;-78
2023/08/02 01:34:48;;;;;;;0.98;0.70;;;15.60;99.90;;;;;;5095752;28;20062;-78
2023/08/02 01:37:14;;;;;;;0.77;0.60;;;15.70;99.90;;;;;;5094637;28;20036;-78
2023/08/02 01:39:40;;;;;;;;;;;15.70;99.90;;;;;;5093079;28;20035;-78
2023/08/02 01:42:06;;;;;;;0.70;0.65;;;15.60;99.90;;;;;;5088733;28;20489;-77
2023/08/02 01:44:31;;;;;;;0.88;0.88;;;15.60;99.90;;;;;;5073359;28;20423;-77
2023/08/02 01:46:57;;;;;;;1.17;0.93;;;15.70;99.90;;;;;;5092517;28;20106;-77
2023/08/02 01:49:23;;;;;;;1.58;0.90;;;15.60;99.90;;;;;;5093444;28;20046;-78
2023/08/02 01:51:49;;;;;;;0.98;0.88;;;15.90;99.90;;;;;;5097084;28;20121;-78
2023/08/02 01:54:14;;;;;;;0.85;0.63;;;15.80;99.90;;;;;;5090030;28;20050;-78
2023/08/02 01:56:40;;;;;;;1.38;0.90;;;15.50;99.90;;;;;;5079678;28;20043;-79
2023/08/02 01:59:06;;;;;;;1.38;0.80;;;15.80;99.90;;;;;;5096401;28;20483;-77
2023/08/02 02:01:31;;;;;;;1.27;0.90;;;15.80;99.90;;;;;;5077325;28;20051;-77
2023/08/02 02:03:57;;;;;;;0.80;0.80;;;15.80;99.90;;;;;;5085332;28;20535;-79
2023/08/02 02:06:22;;;;;;;0.95;0.90;;;15.60;99.90;;;;;;5092590;28;20040;-77
2023/08/02 02:08:49;;;;;;;1.65;0.85;;;15.80;99.90;;;;;;5093308;28;20105;-77
2023/08/02 02:11:14;;;;;;;;;;;15.60;99.90;;;;;;5093432;28;20039;-77
2023/08/02 02:13:40;;;;;;;1.27;0.75;;;15.50;99.90;;;;;;5075803;28;20370;-77
2023/08/02 02:16:06;;;;;;;1.10;0.90;;;15.80;99.90;;;;;;5057350;28;20058;-78
2023/08/02 02:18:31;;;;;;;1.10;1.00;;;15.80;99.90;;;;;;5090234;28;20072;-78
2023/08/02 02:20:57;;;;;;;1.92;1.00;;;15.50;99.90;;;;;;5091568;28;20047;-78
2023/08/02 02:23:23;;;;;;;1.02;1.00;;;15.50;99.90;;;;;;5072637;28;20519;-78
2023/08/02 02:25:48;;;;;;;1.45;1.05;;;15.60;99.90;;;;;;5090437;28;20044;-78
2023/08/02 02:28:14;;;;;;;1.20;1.00;;;15.80;99.90;;;;;;5089370;28;20111;-78
2023/08/02 02:30:43;;;;;;;1.05;0.90;;;15.50;99.90;;;;;;5074617;28;20502;-78
2023/08/02 02:33:09;;;;;;;1.00;0.90;;;15.40;99.90;;;;;;5092026;28;20537;-78
2023/08/02 02:35:34;;;;;;;0.90;0.90;;;15.50;99.90;;;;;;5074846;28;20131;-78
2023/08/02 02:38:00;;;;;;;1.65;1.10;;;15.70;99.90;;;;;;5074007;28;20040;-78
2023/08/02 02:40:26;;;;;;;1.45;1.00;;;15.40;99.90;;;;;;5091700;28;20123;-78
2023/08/02 02:42:51;;;;;;;1.33;0.90;;;15.40;99.90;;;;;;5090657;28;20127;-78
2023/08/02 02:45:17;;;;;;;1.30;1.00;;;15.60;99.90;;;;;;5089692;28;20051;-78
2023/08/02 02:47:43;;;;;;;1.45;1.05;;;15.40;99.90;;;;;;5072999;28;20675;-78
2023/08/02 02:50:09;;;;;;;1.60;1.20;;;15.40;99.90;;;;;;5071335;28;20040;-78
2023/08/02 02:52:34;;;;;;;;;;;15.70;99.90;;;;;;5091094;28;20143;-78
2023/08/02 02:55:00;;;;;;;0.93;0.90;;;15.40;99.90;;;;;;5090994;28;20048;-78
2023/08/02 02:57:26;;;;;;;0.75;0.75;;;15.40;99.90;;;;;;5090454;28;20040;-78
2023/08/02 02:59:51;;;;;;;1.30;1.17;;;15.60;99.90;;;;;;5090687;28;20043;-78
2023/08/02 03:02:17;;;;;;;1.58;1.00;;;15.50;99.90;;;;;;5091603;28;20081;-78
2023/08/02 03:04:43;;;;;;;1.33;1.23;;;15.60;99.90;;;;;;5090872;28;20048;-78
2023/08/02 03:07:09;;;;;;;2.30;1.23;;;15.40;99.90;;;;;;5083824;28;20036;-78
2023/08/02 03:09:34;;;;;;;1.80;1.30;;;15.60;99.90;;;;;;5058138;28;20101;-79
2023/08/02 03:12:00;;;;;;;2.28;1.33;;;15.70;99.90;;;;;;5073755;28;20094;-78
2023/08/02 03:14:27;;;;;;;1.70;1.10;;;15.60;99.90;;;;;;5052947;28;20051;-78
2023/08/02 03:16:53;;;;;;;1.30;1.20;;;15.70;99.90;;;;;;5090623;28;20487;-78
2023/08/02 03:19:18;;;;;;;1.20;1.10;;;15.40;99.90;;;;;;5089475;28;20043;-78
2023/08/02 03:21:44;;;;;;;1.85;1.10;;;15.60;99.90;;;;;;5091039;28;20115;-78
2023/08/02 03:24:10;;;;;;;1.40;1.20;;;15.70;99.90;;;;;;5072690;28;20044;-78
2023/08/02 03:26:35;;;;;;;1.23;1.05;;;15.60;99.90;;;;;;5075148;28;20032;-78
2023/08/02 03:29:01;;;;;;;1.20;1.00;;;15.30;99.90;;;;;;5071154;28;20090;-78
2023/08/02 03:31:27;;;;;;;2.42;1.33;;;15.40;99.90;;;;;;5081502;28;20036;-78
2023/08/02 03:33:52;;;;;;;1.50;1.02;;;15.30;99.90;;;;;;5090598;28;20048;-78
2023/08/02 03:36:18;;;;;;;1.73;1.20;;;15.40;99.90;;;;;;5089360;28;20464;-78
2023/08/02 03:38:44;;;;;;;1.17;1.00;;;15.70;99.90;;;;;;5089838;28;20083;-78
2023/08/02 03:41:09;;;;;;;1.02;0.93;;;15.30;99.90;;;;;;5071022;28;20032;-78
2023/08/02 03:43:35;;;;;;;2.65;1.35;;;15.40;99.90;;;;;;5091263;28;20127;-78
2023/08/02 03:46:04;;;;;;;1.90;0.95;;;15.40;99.90;;;;;;5073557;28;20036;-78
2023/08/02 03:48:31;;;;;;;2.42;1.20;;;15.40;99.90;;;;;;5070687;28;20033;-78
2023/08/02 03:50:57;;;;;;;2.97;1.10;;;15.40;99.90;;;;;;5090312;28;20115;-78
2023/08/02 03:53:24;;;;;;;1.48;1.00;;;15.70;99.90;;;;;;5086493;28;20104;-78
2023/08/02 03:55:50;;;;;;;2.47;1.35;;;15.60;99.90;;;;;;5088406;28;20486;-79
2023/08/02 03:58:16;;;;;;;1.55;1.20;;;15.60;99.90;;;;;;5091123;28;20040;-79
2023/08/02 04:00:41;;;;;;;2.17;1.40;;;15.60;99.90;;;;;;5084326;28;20467;-79
2023/08/02 04:03:07;;;;;;;3.55;1.40;;;15.50;99.90;;;;;;5088325;28;20039;-79
2023/08/02 04:05:33;;;;;;;3.28;1.30;;;15.50;99.90;;;;;;5076301;28;20059;-79
2023/08/02 04:07:58;;;;;;;3.33;1.65;;;15.70;99.90;;;;;;5094161;28;20071;-79
2023/08/02 04:10:24;;;;;;;5.38;1.88;;;15.40;99.90;;;;;;5077815;28;20052;-79
2023/08/02 04:12:51;;;;;;;;;;;15.70;99.90;;;;;;5093183;28;20504;-79
2023/08/02 04:15:17;;;;;;;2.63;1.57;;;15.40;99.90;;;;;;5076668;28;19919;-79
2023/08/02 04:17:42;;;;;;;4.65;1.90;;;15.70;99.90;;;;;;5093088;28;20417;-79
2023/08/02 04:20:08;;;;;;;3.70;2.00;;;15.40;99.90;;;;;;5086660;27;20043;-79
2023/08/02 04:22:34;;;;;;;;;;;15.40;99.90;;;;;;5076030;28;20828;-79
2023/08/02 04:25:00;;;;;;;4.00;2.13;;;15.40;99.90;;;;;;5093634;28;20010;-79
2023/08/02 04:27:25;;;;;;;4.28;1.90;;;15.70;99.90;;;;;;5073249;28;20127;-80
2023/08/02 04:29:51;;;;;;;3.88;2.17;;;15.40;99.90;;;;;;5077601;28;20109;-80
2023/08/02 04:32:17;;;;;;;4.28;2.10;;;15.40;99.90;;;;;;5091252;28;20057;-80
2023/08/02 04:34:42;;;;;;;3.67;2.30;;;15.40;99.90;;;;;;5092586;28;20043;-80
2023/08/02 04:37:08;;;;;;;4.95;2.20;;;15.60;99.90;;;;;;5093123;28;20060;-79
2023/08/02 04:39:33;;;;;;;5.68;2.80;;;15.60;99.90;;;;;;5074696;28;20128;-79
2023/08/02 04:42:02;;;;;;;3.60;2.50;;;15.40;99.90;;;;;;5089684;28;20371;-78
2023/08/02 04:44:29;;;;;;;3.13;2.22;;;15.60;99.90;;;;;;5042630;28;20554;-83
2023/08/02 04:46:54;;;;;;;3.75;2.40;;;15.40;99.90;;;;;;5092487;28;21019;-78
2023/08/02 04:49:20;;;;;;;4.32;2.38;;;15.40;99.90;;;;;;5092302;28;20035;-78
2023/08/02 04:51:46;;;;;;;2.95;2.15;;;15.40;99.90;;;;;;5074732;28;20047;-78
2023/08/02 04:54:11;;;;;;;4.60;2.38;;;15.60;99.90;;;;;;5090476;28;20457;-78
2023/08/02 04:56:39;;;;;;;6.13;2.58;;;15.50;99.90;;;;;;5075565;28;20506;-78
2023/08/02 04:59:05;;;;;;;3.65;2.40;;;15.70;99.90;;;;;;5072907;28;20048;-78
2023/08/02 05:01:32;;;;;;;3.33;2.30;;;15.60;99.90;;;;;;5042405;28;20034;-78
2023/08/02 05:03:57;;;;;;;3.05;2.10;;;15.50;99.90;;;;;;5074843;28;20060;-78
2023/08/02 05:06:23;;;;;;;4.70;2.50;;;15.40;99.90;;;;;;5093001;28;20508;-78
2023/08/02 05:08:49;;;;;;;3.58;2.42;;;15.60;99.90;;;;;;5075939;28;20047;-78
2023/08/02 05:11:15;;;;;;;3.45;2.25;;;15.60;99.90;;;;;;5069202;28;20067;-78
2023/08/02 05:13:40;;;;;;;5.43;2.75;;;15.40;99.90;;;;;;5092168;28;20130;-78
2023/08/02 05:16:14;;;;;;;5.18;2.80;;;15.40;99.90;;;;;;5057539;28;20475;-78
2023/08/02 05:18:40;;;;;;;4.28;2.80;;;15.60;99.90;;;;;;5085825;28;20121;-78
2023/08/02 05:21:16;;;;;;;4.15;3.00;;;15.40;99.90;;;;;;5073266;28;20031;-79
2023/08/02 05:23:43;;;;;;;4.25;3.00;;;15.40;99.90;;;;;;5073092;28;20050;-78
2023/08/02 05:26:09;;;;;;;4.68;3.10;;;15.40;99.90;;;;;;5088930;28;20127;-79
2023/08/02 05:28:36;;;;;;;4.15;2.72;;;15.60;99.90;;;;;;5075913;28;20050;-78
2023/08/02 05:31:03;;;;;;;5.32;3.00;;;15.50;99.90;;;;;;5094841;28;20044;-79
2023/08/02 05:33:29;;;;;;;3.78;2.75;;;15.50;99.90;;;;;;5096030;28;20043;-79
2023/08/02 05:35:54;;;;;;;;;;;15.40;99.90;;;;;;5088924;28;20039;-79
2023/08/02 05:38:20;;;;;;;3.92;2.65;;;15.50;99.90;;;;;;5095828;28;19916;-78
2023/08/02 05:40:46;;;;;;;3.67;2.60;;;15.50;99.90;;;;;;5095882;28;20039;-78
2023/08/02 05:43:12;;;;;;;3.63;2.42;;;15.50;99.90;;;;;;5094185;28;20841;-79
2023/08/02 05:45:38;;;;;;;4.22;2.72;;;15.60;99.90;;;;;;5078641;28;20099;-78
2023/08/02 05:48:04;;;;;;;2.53;2.00;;;15.60;99.90;;;;;;5073562;28;20035;-79
2023/08/02 05:50:29;;;;;;;3.33;2.38;;;15.60;99.90;;;;;;5088953;28;21070;-78
2023/08/02 05:52:55;;;;;;;5.82;2.53;;;15.80;99.90;;;;;;5077991;28;20108;-78
2023/08/02 05:55:21;;;;;;;3.00;2.10;;;15.80;99.90;;;;;;5078912;28;20043;-79
2023/08/02 05:57:48;;;;;;;2.40;2.00;;;15.70;99.90;;;;;;5075089;28;20096;-79
2023/08/02 06:00:15;;;;;;;2.55;2.13;;;15.80;99.90;;;;;;5095356;28;20127;-79
2023/08/02 06:02:40;;;;;;;2.85;2.28;;;15.80;99.90;;;;;;5101212;28;20082;-80
2023/08/02 06:05:07;;;;;;;2.83;2.35;;;16.00;99.90;;;;;;5077504;28;20079;-80
2023/08/02 06:07:33;;;;;;;3.28;2.40;;;15.90;99.90;;;;;;5090012;28;20043;-80
2023/08/02 06:09:58;;;;;;;;;;;15.80;99.90;;;;;;5077090;28;20032;-80
2023/08/02 06:12:24;;;;;;;4.40;3.20;;;15.80;99.90;;;;;;5092307;28;19981;-80
2023/08/02 06:14:50;;;;;;;;;;;15.80;99.90;;;;;;5062977;28;20409;-80
2023/08/02 06:17:16;;;;;;;5.25;3.50;;;15.90;99.90;;;;;;5094647;28;19972;-81
2023/08/02 06:19:41;;;;;;;5.35;3.47;;;16.10;99.90;;;;;;5093604;28;20395;-81
2023/08/02 06:22:08;;;;;;;4.97;3.35;;;16.20;99.90;;;;;;5098213;28;20071;-81
2023/08/02 06:24:34;;;;;;;4.75;3.50;;;16.10;99.90;;;;;;5069719;28;20036;-80
2023/08/02 06:27:00;;;;;;;5.97;3.45;;;16.20;99.90;;;;;;5060341;28;20040;-80
2023/08/02 06:29:25;;;;;;;4.03;3.17;;;16.20;99.90;;;;;;5075052;28;20091;-80
2023/08/02 06:31:51;;;;;;;4.03;3.03;;;16.30;99.90;;;;;;5072994;28;20062;-80
2023/08/02 06:34:17;;;;;;;3.92;2.80;;;16.30;99.90;;;;;;5075329;28;20039;-79
2023/08/02 06:36:42;;;;;;;3.05;2.67;;;16.30;99.90;;;;;;5077693;28;20043;-79
2023/08/02 06:39:08;;;;;;;4.65;3.17;;;16.30;99.90;;;;;;5093213;28;20073;-79
2023/08/02 06:41:34;;;;;;;4.63;3.47;;;16.30;99.90;;;;;;5062302;28;20092;-79
2023/08/02 06:43:59;;;;;;;5.78;3.88;;;16.30;99.90;;;;;;5078349;28;20063;-80
2023/08/02 06:46:25;;;;;;;5.32;3.85;;;16.30;99.90;;;;;;5058085;28;20044;-80
2023/08/02 06:48:51;;;;;;;;;;;16.50;99.90;;;;;;5093242;28;20157;-79
2023/08/02 06:51:16;;;;;;;6.20;4.43;;;16.50;99.90;;;;;;5094967;28;19922;-80
2023/08/02 06:53:42;;;;;;;;;;;16.40;99.90;;;;;;5078691;28;20122;-80
2023/08/02 06:56:16;;;;;;;6.70;5.20;;;16.40;99.90;;;;;;5094865;28;19973;-79
2023/08/02 06:58:42;;;;;;;9.43;6.20;;;16.40;99.90;;;;;;5094663;28;20050;-79
2023/08/02 07:01:16;;;;;;;7.10;5.57;;;16.40;99.90;;;;;;5094920;28;20348;-80
2023/08/02 07:03:41;;;;;;;8.77;5.95;;;16.40;99.90;;;;;;5077534;28;20448;-81
2023/08/02 07:06:11;;;;;;;;;;;16.40;99.90;;;;;;5094943;28;20039;-80
2023/08/02 07:08:38;;;;;;;6.00;5.40;;;16.40;99.90;;;;;;5094740;28;20290;-80
2023/08/02 07:11:04;;;;;;;5.50;4.85;;;16.60;99.90;;;;;;5074523;28;20093;-79
2023/08/02 07:13:30;;;;;;;;;;;16.70;99.90;;;;;;5078494;28;20040;-80
2023/08/02 07:15:56;;;;;;;7.43;5.38;;;16.80;99.90;;;;;;5094393;28;19965;-80
2023/08/02 07:18:21;;;;;;;;;;;16.80;99.90;;;;;;5078015;28;20047;-80
2023/08/02 07:20:47;;;;;;;7.20;5.13;;;16.90;99.90;;;;;;5094700;28;19923;-80
2023/08/02 07:23:13;;;;;;;4.88;3.90;;;16.80;99.90;;;;;;5077516;28;20546;-80
2023/08/02 07:25:38;;;;;;;;;;;16.90;99.90;;;;;;5061208;28;20046;-80
2023/08/02 07:28:04;;;;;;;6.72;4.50;;;16.80;99.90;;;;;;5077516;28;19920;-81
2023/08/02 07:30:30;;;;;;;;;;;16.80;99.90;;;;;;5077818;28;20042;-80
2023/08/02 07:32:55;;;;;;;6.68;4.50;;;16.80;99.90;;;;;;5077547;28;19941;-80
2023/08/02 07:35:21;;;;;;;;;;;16.70;99.90;;;;;;5077574;28;20043;-80
2023/08/02 07:37:46;;;;;;;5.80;3.55;;;16.80;99.90;;;;;;5094099;28;19915;-81
2023/08/02 07:40:13;;;;;;;4.88;3.47;;;16.70;99.90;;;;;;5094193;28;20167;-81
2023/08/02 07:42:39;;;;;;;7.32;3.92;;;16.70;99.90;;;;;;5093878;28;20051;-81
2023/08/02 07:45:06;;;;;;;;;;;16.70;99.90;;;;;;5094677;28;20059;-80
2023/08/02 07:47:33;;;;;;;4.32;3.13;;;16.70;99.90;;;;;;5093942;28;19923;-81
2023/08/02 07:49:58;;;;;;;5.00;3.20;;;16.70;99.90;;;;;;5094176;28;20039;-80
2023/08/02 07:52:24;;;;;;;;;;;16.60;99.90;;;;;;5094305;28;20511;-80
2023/08/02 07:54:53;;;;;;;5.15;2.95;;;16.70;99.90;;;;;;5076779;28;19915;-81
2023/08/02 07:57:37;;;;;;;4.88;3.00;;;16.60;99.90;;;;;;5093952;28;20131;-80
2023/08/02 08:00:03;;;;;;;4.85;2.75;;;16.70;99.90;;;;;;5085479;28;20216;-81
2023/08/02 08:02:29;;;;;;;3.10;2.55;;;16.70;99.90;;;;;;5093948;28;20052;-80
2023/08/02 08:04:54;;;;;;;;;;;16.60;99.90;;;;;;5076914;28;20051;-80
2023/08/02 08:07:20;;;;;;;3.55;2.30;;;16.60;99.90;;;;;;5093979;28;19915;-80
2023/08/02 08:09:46;;;;;;;;;;;16.50;99.90;;;;;;5093821;28;20036;-80
2023/08/02 08:12:12;;;;;;;3.08;2.38;;;16.50;99.90;;;;;;5093764;28;20006;-80
2023/08/02 08:14:38;;;;;;;;;;;16.50;99.90;;;;;;5094131;28;20075;-80
2023/08/02 08:17:04;;;;;;;3.55;2.10;;;16.50;99.90;;;;;;5093861;28;19920;-80
2023/08/02 08:19:32;;;;;;;4.43;2.47;;;16.50;99.90;;;;;;5093622;28;20052;-80
2023/08/02 08:21:57;;;;;;;3.35;2.40;;;16.50;99.90;;;;;;5062340;28;20088;-80
2023/08/02 08:24:23;;;;;;;;;;;16.40;99.90;;;;;;5093673;28;20051;-80
2023/08/02 08:26:50;;;;;;;2.60;1.98;;;16.40;99.90;;;;;;5076463;28;19927;-80
2023/08/02 08:29:17;;;;;;;2.55;1.92;;;16.40;99.90;;;;;;5059981;28;20035;-80
2023/08/02 08:31:42;;;;;;;3.83;2.20;;;16.40;99.90;;;;;;5076744;28;20039;-81
2023/08/02 08:34:08;;;;;;;;;;;16.40;99.90;;;;;;5076572;28;20379;-80
2023/08/02 08:36:34;;;;;;;3.35;2.58;;;16.40;99.90;;;;;;5093030;28;19916;-80
2023/08/02 08:38:59;;;;;;;6.18;2.85;;;16.30;99.90;;;;;;5093110;28;20172;-80
2023/08/02 08:41:25;;;;;;;3.47;2.55;;;16.00;99.90;;;;;;5093552;28;20043;-81
2023/08/02 08:43:51;;;;;;;7.40;3.35;;;16.10;99.90;;;;;;5076122;28;20348;-81
2023/08/02 08:46:19;;;;;;;5.50;2.50;;;16.00;99.90;;;;;;5093018;28;20505;-81
2023/08/02 08:48:45;;;;;;;3.78;2.28;;;15.80;99.90;;;;;;5093082;28;20426;-81
2023/08/02 08:51:12;;;;;;;2.75;2.10;;;15.80;99.90;;;;;;5075945;28;20110;-81
2023/08/02 08:53:43;;;;;;;3.15;2.22;;;15.70;99.90;;;;;;5092854;28;20097;-82
2023/08/02 08:56:09;;;;;;;5.80;2.67;;;15.70;99.90;;;;;;5072820;28;20516;-81
2023/08/02 08:58:36;;;;;;;3.80;2.33;;;15.60;99.90;;;;;;5066012;28;20047;-81
2023/08/02 09:01:06;;;;;;;3.00;2.05;;;15.50;99.90;;;;;;5093564;28;20544;-81
2023/08/02 09:03:35;;;;;;;3.33;2.30;;;15.60;99.90;;;;;;5092864;28;20044;-80
2023/08/02 09:06:02;;;;;;;4.10;2.05;;;15.80;99.90;;;;;;5092563;28;20047;-81
2023/08/02 09:08:28;;;;;;;2.47;1.80;;;15.90;99.90;;;;;;5093281;28;20042;-81
2023/08/02 09:10:54;;;;;;;3.00;2.10;;;15.80;99.90;;;;;;5092866;28;20036;-82
2023/08/02 09:13:29;;;;;;;3.92;2.17;;;15.20;99.90;;;;;;5093077;28;20058;-81
2023/08/02 09:16:05;;;;;;;3.25;2.05;;;15.30;99.90;;;;;;5093077;28;20105;-81
2023/08/02 09:18:49;;;;;;;3.47;2.00;;;15.90;99.90;;;;;;5092961;28;20114;-81
2023/08/02 09:21:20;;;;;;;3.20;2.00;;;16.00;99.90;;;;;;5092713;28;20052;-81
2023/08/02 09:23:57;;;;;;;3.40;2.53;;;16.10;99.90;;;;;;5092712;28;20047;-82
2023/08/02 09:26:23;;;;;;;4.10;2.20;;;15.50;99.90;;;;;;5093079;28;20047;-81
2023/08/02 09:29:06;;;;;;;3.42;2.45;;;15.80;99.90;;;;;;5092430;28;20051;-82
2023/08/02 09:31:34;;;;;;;5.60;3.15;;;16.20;99.90;;;;;;5093152;28;20036;-81
2023/08/02 09:34:01;;;;;;;5.13;2.60;;;16.10;99.90;;;;;;5092655;28;20044;-81
2023/08/02 09:36:35;;;;;;;4.30;2.53;;;15.90;99.90;;;;;;5075831;28;20077;-81
2023/08/02 09:39:18;;;;;;;4.68;3.10;;;15.20;99.90;;;;;;5090397;28;20051;-81
2023/08/02 09:41:44;;;;;;;4.43;2.65;;;15.20;99.90;;;;;;5066704;28;20075;-81
2023/08/02 09:44:20;;;;;;;5.60;2.90;;;15.80;99.90;;;;;;5092654;28;20071;-81
2023/08/02 09:46:45;;;;;;;3.25;2.50;;;16.00;99.90;;;;;;5092878;28;20551;-81
2023/08/02 09:49:19;;;;;;;3.60;2.38;;;16.10;99.90;;;;;;5092443;28;20043;-81
2023/08/02 09:51:45;;;;;;;3.13;2.05;;;15.50;99.90;;;;;;5092654;28;20040;-81
2023/08/02 09:54:13;;;;;;;3.17;2.28;;;15.30;99.90;;;;;;5092947;28;20048;-81
2023/08/02 09:56:40;;;;;;;1.80;1.60;;;15.30;99.90;;;;;;5092530;28;20673;-81
2023/08/02 09:59:07;;;;;;;2.75;2.22;;;16.10;99.90;;;;;;5092424;28;20070;-81
2023/08/02 10:01:34;;;;;;;3.55;2.22;;;16.30;99.90;;;;;;5092545;28;20044;-81
2023/08/02 10:04:08;;;;;;;3.88;2.42;;;16.20;99.90;;;;;;5088443;28;20143;-81
2023/08/02 10:06:46;;;;;;;3.38;2.40;;;15.60;99.90;;;;;;5089040;28;20104;-80
2023/08/02 10:09:18;;;;;;;4.05;2.50;;;15.60;99.90;;;;;;5088923;28;20039;-81
2023/08/02 10:11:50;;;;;;;4.55;3.08;;;15.60;99.90;;;;;;5083113;28;20571;-80
2023/08/02 10:14:16;;;;;;;3.45;2.60;;;16.30;99.90;;;;;;5064482;28;20071;-81
2023/08/02 10:16:44;;;;;;;3.97;2.75;;;16.20;99.90;;;;;;5089908;28;20078;-80
2023/08/02 10:19:12;;;;;;;2.72;2.42;;;16.60;99.90;;;;;;5092520;28;20055;-80
2023/08/02 10:21:39;;;;;;;4.65;3.00;;;16.50;99.90;;;;;;5084932;28;20036;-80
2023/08/02 10:24:05;;;;;;;3.75;2.63;;;16.20;99.90;;;;;;5091509;28;20044;-79
2023/08/02 10:26:32;;;;;;;2.65;2.38;;;15.60;99.90;;;;;;5075502;28;20048;-79
2023/08/02 10:28:59;;;;;;;4.82;2.88;;;15.70;99.90;;;;;;5088369;28;20089;-81
2023/08/02 10:31:26;;;;;;;4.78;3.13;;;16.50;99.90;;;;;;5090041;28;20036;-80
2023/08/02 10:33:52;;;;;;;3.80;3.03;;;15.40;99.90;;;;;;5087204;28;20506;-80
2023/08/02 10:36:18;;;;;;;3.50;2.97;;;15.70;99.90;;;;;;5070770;28;20044;-79
2023/08/02 10:38:44;;;;;;;3.17;2.70;;;16.80;99.90;;;;;;5069816;28;20051;-79
2023/08/02 10:41:18;;;;;;;2.80;2.50;;;17.00;99.90;;;;;;5091298;28;20135;-79
2023/08/02 10:43:53;;;;;;;5.03;3.15;;;15.90;99.90;;;;;;5091443;28;20040;-79
2023/08/02 10:46:27;;;;;;;3.45;2.75;;;15.80;99.90;;;;;;5084743;28;20150;-79
2023/08/02 10:48:55;;;;;;;4.47;2.70;;;15.40;99.90;;;;;;5091807;28;20487;-79
2023/08/02 10:51:27;;;;;;;3.72;2.70;;;16.90;99.90;;;;;;5091835;28;20070;-79
2023/08/02 10:54:15;;;;;;;5.50;3.28;;;16.70;99.90;;;;;;5090011;28;20188;-79
2023/08/02 10:56:54;;;;;;;3.13;2.40;;;15.30;99.90;;;;;;5089390;28;20523;-78
2023/08/02 10:59:23;;;;;;;2.53;2.08;;;15.20;99.90;;;;;;5072167;28;20391;-77
2023/08/02 11:02:07;;;;;;;2.60;2.25;;;16.70;99.90;;;;;;5088931;28;20048;-80
2023/08/02 11:04:37;;;;;;;2.55;2.00;;;15.60;99.90;;;;;;5087829;28;20044;-78
2023/08/02 11:07:16;;;;;;;2.15;1.70;;;17.10;99.90;;;;;;5090650;28;20040;-79
2023/08/02 11:09:42;;;;;;;2.00;1.80;;;17.60;99.90;;;;;;5090569;28;20074;-78
2023/08/02 11:12:18;;;;;;;1.98;1.70;;;16.00;99.90;;;;;;5089249;28;20209;-78
2023/08/02 11:14:45;;;;;;;;;;;15.70;99.90;;;;;;5070541;28;20036;-78
2023/08/02 11:17:16;;;;;;;1.67;1.40;;;17.20;99.90;;;;;;5091868;28;19916;-78
2023/08/02 11:19:47;;;;;;;2.58;1.40;;;17.70;99.90;;;;;;5089278;28;20044;-78
2023/08/02 11:22:12;;;;;;;2.03;1.27;;;15.40;99.90;;;;;;5085338;28;20066;-78
2023/08/02 11:24:56;;;;;;;1.55;1.20;;;17.30;99.90;;;;;;5090393;28;20447;-78
2023/08/02 11:27:24;;;;;;;1.20;1.10;;;17.80;99.90;;;;;;5088912;28;20168;-78
2023/08/02 11:30:04;;;;;;;1.17;1.08;;;17.70;99.90;;;;;;5083821;28;20044;-78
2023/08/02 11:32:32;;;;;;;2.35;1.10;;;15.80;99.90;;;;;;5090904;28;20043;-78
2023/08/02 11:34:58;;;;;;;1.42;1.10;;;17.70;99.90;;;;;;5090159;28;20058;-78
2023/08/02 11:37:24;;;;;;;1.45;1.30;;;16.00;99.90;;;;;;5095418;28;20040;-78
2023/08/02 11:39:58;;;;;;;1.27;1.13;;;17.10;99.90;;;;;;5090784;28;20555;-78
2023/08/02 11:42:25;;;;;;;0.80;0.80;;;16.90;99.90;;;;;;5088395;28;20459;-78
2023/08/02 11:44:51;;;;;;;1.00;0.90;;;18.10;99.90;;;;;;5089529;28;20578;-78
2023/08/02 11:47:16;;;;;;;1.10;1.00;;;17.60;99.90;;;;;;5090830;28;20054;-74
2023/08/02 11:49:57;;;;;;;1.58;1.00;;;17.90;99.90;;;;;;5087568;28;20532;-74
2023/08/02 11:52:27;;;;;;;1.00;0.90;;;16.20;99.90;;;;;;5086922;28;20036;-75
2023/08/02 11:54:54;;;;;;;1.10;0.90;;;16.30;99.90;;;;;;5071764;28;20131;-75
2023/08/02 11:57:21;;;;;;;1.33;1.10;;;18.00;99.90;;;;;;5091455;28;20047;-74
2023/08/02 11:59:48;;;;;;;1.00;0.90;;;16.90;99.90;;;;;;5073912;28;20079;-74
2023/08/02 12:02:26;;;;;;;1.60;1.10;;;16.60;99.90;;;;;;5090032;28;20048;-75
2023/08/02 12:04:52;;;;;;;1.17;1.05;;;16.50;99.90;;;;;;5089023;28;20088;-75
2023/08/02 12:07:24;;;;;;;;;;;18.30;99.90;;;;;;5085924;28;20090;-75
2023/08/02 12:09:50;;;;;;;1.52;1.00;;;17.80;99.90;;;;;;5081785;28;19920;-75
2023/08/02 12:12:15;;;;;;;;;;;16.50;99.90;;;;;;5089875;28;20046;-75
2023/08/02 12:14:41;;;;;;;0.80;0.70;;;18.40;99.90;;;;;;5087887;28;19975;-75
2023/08/02 12:17:15;;;;;;;0.90;0.75;;;18.40;99.90;;;;;;5080310;28;20085;-75
2023/08/02 12:19:41;;;;;;;0.57;0.57;;;16.80;99.90;;;;;;5079148;28;20120;-75
2023/08/02 12:22:07;;;;;;;;;;;18.70;99.90;;;;;;5080366;28;20111;-75
2023/08/02 12:24:32;;;;;;;0.85;0.60;;;16.80;99.90;;;;;;5080454;28;19950;-75
2023/08/02 12:27:19;;;;;;;0.60;0.60;;;18.30;99.90;;;;;;5064740;28;20051;-75
2023/08/02 12:29:46;;;;;;;0.55;0.50;;;16.50;99.90;;;;;;5088618;28;20052;-75
2023/08/02 12:32:26;;;;;;;0.55;0.50;;;17.60;99.90;;;;;;5085867;28;20039;-76
2023/08/02 12:34:52;;;;;;;0.60;0.60;;;17.10;99.90;;;;;;5086387;28;20114;-75
2023/08/02 12:37:17;;;;;;;;;;;18.60;99.90;;;;;;5063733;28;20492;-75
2023/08/02 12:39:43;;;;;;;0.60;0.60;;;18.20;99.90;;;;;;5078562;28;19927;-74
2023/08/02 12:42:09;;;;;;;;;;;17.80;99.90;;;;;;5077158;28;20051;-75
2023/08/02 12:44:34;;;;;;;0.60;0.60;;;18.90;99.90;;;;;;5068922;28;19921;-77
2023/08/02 12:47:00;;;;;;;;;;;19.20;99.90;;;;;;5081991;28;20113;-74
2023/08/02 12:49:26;;;;;;;0.82;0.70;;;18.10;99.90;;;;;;5086415;28;19924;-74
2023/08/02 12:51:51;;;;;;;;;;;18.80;99.90;;;;;;5079364;28;20039;-75
2023/08/02 12:54:17;;;;;;;1.40;0.98;;;20.30;99.90;;;;;;5084540;28;20315;-77
2023/08/02 12:56:43;;;;;;;;;;;18.40;99.90;;;;;;5089790;28;20054;-76